createdAt,value
2023-09-05T00:02:15.219Z,2.77
2023-09-05T00:04:44.045Z,4.10
2023-09-05T00:07:12.229Z,3.87
2023-09-05T00:09:40.126Z,3.90
2023-09-05T00:12:09.416Z,4.93
2023-09-05T00:14:39.298Z,3.63
2023-09-05T00:17:07.207Z,4.17
2023-09-05T00:19:35.113Z,4.40
2023-09-05T00:22:02.971Z,3.23
2023-09-05T00:24:33.247Z,3.67
2023-09-05T00:27:02.249Z,3.33
2023-09-05T00:29:31.725Z,3.90
2023-09-05T00:32:03.210Z,3.70
2023-09-05T00:34:32.954Z,4.70
2023-09-05T00:37:01.961Z,3.97
2023-09-05T00:39:30.239Z,2.57
2023-09-05T00:41:58.954Z,3.13
2023-09-05T00:44:27.400Z,4.57
2023-09-05T00:46:57.446Z,3.50
2023-09-05T00:49:28.679Z,3.73
2023-09-05T00:51:58.744Z,2.90
2023-09-05T00:54:27.046Z,4.90
2023-09-05T00:56:55.160Z,3.67
2023-09-05T00:59:23.641Z,4.53
2023-09-05T01:01:51.783Z,2.17
2023-09-05T01:04:20.244Z,3.73
2023-09-05T01:06:58.290Z,4.23
2023-09-05T01:09:34.006Z,3.50
2023-09-05T01:12:03.442Z,2.90
2023-09-05T01:14:31.318Z,4.23
2023-09-05T01:17:02.542Z,4.17
2023-09-05T01:19:31.551Z,3.73
2023-09-05T01:22:12.978Z,3.23
2023-09-05T01:24:42.526Z,2.93
2023-09-05T01:27:11.367Z,4.37
2023-09-05T01:29:40.458Z,3.80
2023-09-05T01:32:10.799Z,2.60
2023-09-05T01:34:38.722Z,3.37
2023-09-05T01:37:06.747Z,3.27
2023-09-05T01:39:34.619Z,3.77
2023-09-05T01:42:04.066Z,3.37
2023-09-05T01:44:33.825Z,3.57
2023-09-05T01:47:01.699Z,3.03
2023-09-05T01:49:29.580Z,3.90
2023-09-05T01:51:57.472Z,4.60
2023-09-05T01:54:25.852Z,3.03
2023-09-05T01:56:53.710Z,3.80
2023-09-05T01:59:23.125Z,3.13
2023-09-05T02:01:51.291Z,3.40
2023-09-05T02:04:19.227Z,3.67
2023-09-05T02:06:47.127Z,2.87
2023-09-05T02:09:15.036Z,4.20
2023-09-05T02:11:42.927Z,3.30
2023-09-05T02:14:10.798Z,4.47
2023-09-05T02:16:40.074Z,3.20
2023-09-05T02:19:08.011Z,2.93
2023-09-05T02:21:35.872Z,3.00
2023-09-05T02:24:03.737Z,3.40
2023-09-05T02:26:31.579Z,4.17
2023-09-05T02:29:00.044Z,3.53
2023-09-05T02:31:27.925Z,3.77
2023-09-05T02:33:57.215Z,3.67
2023-09-05T02:36:25.125Z,4.20
2023-09-05T02:38:53.050Z,3.47
2023-09-05T02:41:21.001Z,2.40
2023-09-05T02:43:48.949Z,3.00
2023-09-05T02:46:16.934Z,3.93
2023-09-05T02:48:45.393Z,2.77
2023-09-05T02:51:15.310Z,3.40
2023-09-05T02:53:43.235Z,3.50
2023-09-05T02:56:11.125Z,3.97
2023-09-05T02:58:38.980Z,2.60
2023-09-05T03:01:11.632Z,3.07
2023-09-05T03:03:39.737Z,2.33
2023-09-05T03:06:11.716Z,3.37
2023-09-05T03:08:43.459Z,2.73
2023-09-05T03:11:11.404Z,3.23
2023-09-05T03:13:39.282Z,2.57
2023-09-05T03:16:07.237Z,3.73
2023-09-05T03:18:35.174Z,3.50
2023-09-05T03:21:03.142Z,2.37
2023-09-05T03:23:31.052Z,4.13
2023-09-05T03:26:00.239Z,3.17
2023-09-05T03:28:40.754Z,4.47
2023-09-05T03:31:08.690Z,4.33
2023-09-05T03:33:36.802Z,2.63
2023-09-05T03:36:06.266Z,3.70
2023-09-05T03:38:34.328Z,3.47
2023-09-05T03:41:03.618Z,3.80
2023-09-05T03:43:31.512Z,3.23
2023-09-05T03:45:59.476Z,3.00
2023-09-05T03:48:27.613Z,3.10
2023-09-05T03:50:55.575Z,2.63
2023-09-05T03:53:23.653Z,4.80
2023-09-05T03:55:52.432Z,4.17
2023-09-05T03:58:21.631Z,4.17
2023-09-05T04:00:49.514Z,6.27
2023-09-05T04:03:17.623Z,3.97
2023-09-05T04:05:45.584Z,3.20
2023-09-05T04:08:13.441Z,3.93
2023-09-05T04:10:41.912Z,3.63
2023-09-05T04:13:09.780Z,3.13
2023-09-05T04:15:39.497Z,3.97
2023-09-05T04:18:07.590Z,3.73
2023-09-05T04:20:35.546Z,3.80
2023-09-05T04:23:03.446Z,2.80
2023-09-05T04:25:33.751Z,3.60
2023-09-05T04:28:01.627Z,4.60
2023-09-05T04:30:29.685Z,4.40
2023-09-05T04:32:59.671Z,4.23
2023-09-05T04:35:27.636Z,3.17
2023-09-05T04:37:55.520Z,4.27
2023-09-05T04:40:23.823Z,3.37
2023-09-05T04:42:51.670Z,3.70
2023-09-05T04:45:19.536Z,3.53
2023-09-05T04:47:47.463Z,5.37
2023-09-05T04:50:16.713Z,4.80
2023-09-05T04:52:44.544Z,3.13
2023-09-05T04:55:12.415Z,4.00
2023-09-05T04:57:43.404Z,4.30
2023-09-05T05:00:14.730Z,5.20
2023-09-05T05:02:42.860Z,4.23
2023-09-05T05:05:11.266Z,6.40
2023-09-05T05:07:40.501Z,6.00
2023-09-05T05:10:09.467Z,6.77
2023-09-05T05:12:37.350Z,9.07
2023-09-05T05:15:05.669Z,7.50
2023-09-05T05:17:33.576Z,6.70
2023-09-05T05:20:01.760Z,6.80
2023-09-05T05:22:29.617Z,3.97
2023-09-05T05:24:58.928Z,4.30
2023-09-05T05:27:27.151Z,5.07
2023-09-05T05:29:55.458Z,4.03
2023-09-05T05:32:23.307Z,4.80
2023-09-05T05:34:51.167Z,6.80
2023-09-05T05:37:19.214Z,4.80
2023-09-05T05:39:47.090Z,8.57
2023-09-05T05:42:16.316Z,9.10
2023-09-05T05:44:44.212Z,11.73
2023-09-05T05:47:12.050Z,6.57
2023-09-05T05:49:39.928Z,5.80
2023-09-05T05:52:09.979Z,6.67
2023-09-05T05:54:37.874Z,6.53
2023-09-05T05:57:06.281Z,8.03
2023-09-05T05:59:35.482Z,6.47
2023-09-05T06:02:04.660Z,6.07
2023-09-05T06:04:32.642Z,6.77
2023-09-05T06:07:00.555Z,5.97
2023-09-05T06:09:29.036Z,5.40
2023-09-05T06:11:56.925Z,18.03
2023-09-05T06:14:24.779Z,9.37
2023-09-05T06:16:54.045Z,4.30
2023-09-05T06:19:22.040Z,7.73
2023-09-05T06:21:49.885Z,5.03
2023-09-05T06:24:19.720Z,4.43
2023-09-05T06:26:47.570Z,5.53
2023-09-05T06:29:15.433Z,5.07
2023-09-05T06:31:43.410Z,4.70
2023-09-05T06:34:12.708Z,6.87
2023-09-05T06:36:41.531Z,3.67
2023-09-05T06:39:09.626Z,5.00
2023-09-05T06:41:38.241Z,4.17
2023-09-05T06:44:06.482Z,11.47
2023-09-05T06:46:36.586Z,5.33
2023-09-05T06:49:05.194Z,4.20
2023-09-05T06:51:34.468Z,4.77
2023-09-05T06:54:02.634Z,7.43
2023-09-05T06:56:30.486Z,4.63
2023-09-05T06:59:00.786Z,4.37
2023-09-05T07:01:30.477Z,4.83
2023-09-05T07:03:58.665Z,4.33
2023-09-05T07:06:26.542Z,3.30
2023-09-05T07:08:55.893Z,4.07
2023-09-05T07:11:24.064Z,3.57
2023-09-05T07:13:52.068Z,3.50
2023-09-05T07:16:20.024Z,4.97
2023-09-05T07:18:47.971Z,6.50
2023-09-05T07:21:16.298Z,4.30
2023-09-05T07:23:44.284Z,2.93
2023-09-05T07:26:13.596Z,4.23
2023-09-05T07:28:41.495Z,6.43
2023-09-05T07:31:09.730Z,2.60
2023-09-05T07:33:38.744Z,3.90
2023-09-05T07:36:06.844Z,3.07
2023-09-05T07:38:34.750Z,5.00
2023-09-05T07:41:03.505Z,2.87
2023-09-05T07:43:33.743Z,2.80
2023-09-05T07:46:01.708Z,3.28
2023-09-05T07:48:29.678Z,3.17
2023-09-05T07:51:03.088Z,2.72
2023-09-05T07:53:31.213Z,4.75
2023-09-05T07:55:59.402Z,5.13
2023-09-05T07:58:28.162Z,3.17
2023-09-05T08:00:58.296Z,2.67
2023-09-05T08:03:27.726Z,2.40
2023-09-05T08:05:56.232Z,2.15
2023-09-05T08:08:24.857Z,5.57
2023-09-05T08:10:53.055Z,2.42
2023-09-05T08:13:20.996Z,2.80
2023-09-05T08:15:49.013Z,2.67
2023-09-05T08:18:18.901Z,2.00
2023-09-05T08:20:47.687Z,2.78
2023-09-05T08:23:15.664Z,2.08
2023-09-05T08:25:43.575Z,2.85
2023-09-05T08:28:11.449Z,2.58
2023-09-05T08:30:39.368Z,3.15
2023-09-05T08:33:07.494Z,2.10
2023-09-05T08:35:38.830Z,2.90
2023-09-05T08:38:07.346Z,2.90
2023-09-05T08:40:35.443Z,2.17
2023-09-05T08:43:03.971Z,2.00
2023-09-05T08:45:33.271Z,3.22
2023-09-05T08:48:01.736Z,2.55
2023-09-05T08:50:30.909Z,1.92
2023-09-05T08:53:04.073Z,2.80
2023-09-05T08:55:32.186Z,2.78
2023-09-05T08:58:01.307Z,2.63
2023-09-05T09:00:30.151Z,2.60
2023-09-05T09:03:00.602Z,2.75
2023-09-05T09:05:29.399Z,3.55
2023-09-05T09:07:58.170Z,2.35
2023-09-05T09:10:27.477Z,2.47
2023-09-05T09:12:56.860Z,2.60
2023-09-05T09:15:27.168Z,1.90
2023-09-05T09:17:55.698Z,2.88
2023-09-05T09:20:24.873Z,2.22
2023-09-05T09:22:53.960Z,2.40
2023-09-05T09:25:22.579Z,2.35
2023-09-05T09:27:55.466Z,2.45
2023-09-05T09:30:25.221Z,2.95
2023-09-05T09:32:54.201Z,1.83
2023-09-05T09:35:22.683Z,1.35
2023-09-05T09:37:51.373Z,2.00
2023-09-05T09:40:19.479Z,2.53
2023-09-05T09:42:50.923Z,2.17
2023-09-05T09:45:21.609Z,1.60
2023-09-05T09:47:50.701Z,1.73
2023-09-05T09:50:21.563Z,2.42
2023-09-05T09:52:54.405Z,2.35
2023-09-05T09:55:26.449Z,2.00
2023-09-05T09:58:03.161Z,2.38
2023-09-05T10:00:33.775Z,2.70
2023-09-05T10:03:02.351Z,1.50
2023-09-05T10:05:33.029Z,2.40
2023-09-05T10:08:01.297Z,1.83
2023-09-05T10:10:30.951Z,2.15
2023-09-05T10:12:59.940Z,4.68
2023-09-05T10:15:30.226Z,1.73
2023-09-05T10:18:01.968Z,1.70
2023-09-05T10:20:31.302Z,1.95
2023-09-05T10:22:59.754Z,2.55
2023-09-05T10:25:29.751Z,2.40
2023-09-05T10:27:57.789Z,1.50
2023-09-05T10:30:25.866Z,2.25
2023-09-05T10:32:54.987Z,2.72
2023-09-05T10:35:25.034Z,2.38
2023-09-05T10:38:00.499Z,1.40
2023-09-05T10:40:35.835Z,1.77
2023-09-05T10:43:05.980Z,1.55
2023-09-05T10:45:35.832Z,1.33
2023-09-05T10:48:09.109Z,1.75
2023-09-05T10:51:13.108Z,1.48
2023-09-05T10:53:42.054Z,1.05
2023-09-05T10:56:41.375Z,1.25
2023-09-05T10:59:13.160Z,1.10
2023-09-05T11:01:49.682Z,1.08
2023-09-05T11:04:27.487Z,1.20
2023-09-05T11:07:02.615Z,1.77
2023-09-05T11:09:31.113Z,1.95
2023-09-05T11:11:59.056Z,1.48
2023-09-05T11:14:34.482Z,1.15
2023-09-05T11:17:02.842Z,0.80
2023-09-05T11:19:39.199Z,1.08
2023-09-05T11:22:11.474Z,0.77
2023-09-05T11:24:47.363Z,1.15
2023-09-05T11:27:21.475Z,0.90
2023-09-05T11:29:51.050Z,0.98
2023-09-05T11:32:19.021Z,1.42
2023-09-05T11:34:48.900Z,0.85
2023-09-05T11:37:21.146Z,1.50
2023-09-05T11:39:50.563Z,1.17
2023-09-05T11:42:23.922Z,1.48
2023-09-05T11:44:54.868Z,1.63
2023-09-05T11:47:24.134Z,1.15
2023-09-05T11:49:53.048Z,1.20
2023-09-05T11:52:24.326Z,1.27
2023-09-05T11:54:53.884Z,1.38
2023-09-05T11:57:23.720Z,1.08
2023-09-05T11:59:52.170Z,1.10
2023-09-05T12:02:20.406Z,1.00
2023-09-05T12:04:49.619Z,1.50
2023-09-05T12:07:17.516Z,1.67
2023-09-05T12:09:49.000Z,1.55
2023-09-05T12:12:21.083Z,2.88
2023-09-05T12:14:50.501Z,0.90
2023-09-05T12:17:19.699Z,2.00
2023-09-05T12:19:48.964Z,2.25
2023-09-05T12:22:28.457Z,2.00
2023-09-05T12:25:15.880Z,2.22
2023-09-05T12:27:47.170Z,2.80
2023-09-05T12:30:38.765Z,1.13
2023-09-05T12:33:06.740Z,1.13
2023-09-05T12:35:36.041Z,1.02
2023-09-05T12:38:06.163Z,1.50
2023-09-05T12:40:35.636Z,1.15
2023-09-05T12:43:03.777Z,1.17
2023-09-05T12:45:32.323Z,1.13
2023-09-05T12:48:00.455Z,1.45
2023-09-05T12:50:31.595Z,2.00
2023-09-05T12:53:02.116Z,1.95
2023-09-05T12:55:33.354Z,2.10
2023-09-05T12:58:04.807Z,2.33
2023-09-05T13:00:34.021Z,2.90
2023-09-05T13:03:02.242Z,1.77
2023-09-05T13:05:31.452Z,1.92
2023-09-05T13:07:59.817Z,1.20
2023-09-05T13:10:28.969Z,1.20
2023-09-05T13:13:00.199Z,2.00
2023-09-05T13:15:30.563Z,1.10
2023-09-05T13:17:58.839Z,1.33
2023-09-05T13:20:28.750Z,1.52
2023-09-05T13:22:58.205Z,1.45
2023-09-05T13:25:29.818Z,1.30
2023-09-05T13:27:57.943Z,1.80
2023-09-05T13:30:25.987Z,2.30
2023-09-05T13:32:56.580Z,3.30
2023-09-05T13:35:24.638Z,3.00
2023-09-05T13:37:52.571Z,4.20
2023-09-05T13:40:20.546Z,1.85
2023-09-05T13:42:48.440Z,6.75
2023-09-05T13:45:16.577Z,3.83
2023-09-05T13:47:44.487Z,2.28
2023-09-05T13:52:44.885Z,1.55
2023-09-05T13:55:12.757Z,4.50
2023-09-05T13:57:40.730Z,2.45
2023-09-05T14:00:09.846Z,6.32
2023-09-05T14:02:37.823Z,2.58
2023-09-05T14:05:06.601Z,2.67
2023-09-05T14:07:37.365Z,1.30
2023-09-05T14:10:05.543Z,1.85
2023-09-05T14:12:33.426Z,1.90
2023-09-05T14:15:01.837Z,2.70
2023-09-05T14:17:29.722Z,1.50
2023-09-05T14:19:57.794Z,1.77
2023-09-05T14:22:25.685Z,1.58
2023-09-05T14:24:55.239Z,2.75
2023-09-05T14:27:23.175Z,1.63
2023-09-05T14:29:52.591Z,4.40
2023-09-05T14:32:20.892Z,1.52
2023-09-05T14:34:55.389Z,3.10
2023-09-05T14:37:25.567Z,2.40
2023-09-05T14:39:54.845Z,2.95
2023-09-05T14:42:22.909Z,2.95
2023-09-05T14:44:50.859Z,1.42
2023-09-05T14:47:18.947Z,1.90
2023-09-05T14:49:47.424Z,1.73
2023-09-05T14:52:15.353Z,2.63
2023-09-05T14:54:43.788Z,2.13
2023-09-05T14:57:13.099Z,3.50
2023-09-05T14:59:40.977Z,2.65
2023-09-05T15:02:10.589Z,2.97
2023-09-05T15:04:40.077Z,2.90
2023-09-05T15:07:09.298Z,2.40
2023-09-05T15:09:37.700Z,1.63
2023-09-05T15:12:07.466Z,1.63
2023-09-05T15:14:38.655Z,1.55
2023-09-05T15:17:07.520Z,1.50
2023-09-05T15:19:35.522Z,2.35
2023-09-05T15:22:04.876Z,3.15
2023-09-05T15:24:33.299Z,2.10
2023-09-05T15:27:02.706Z,1.77
2023-09-05T15:29:30.627Z,2.45
2023-09-05T15:31:59.887Z,5.00
2023-09-05T15:34:30.749Z,1.90
2023-09-05T15:36:58.950Z,3.10
2023-09-05T15:39:26.936Z,2.92
2023-09-05T15:41:54.851Z,2.70
2023-09-05T15:44:22.762Z,2.97
2023-09-05T15:46:50.660Z,4.35
2023-09-05T15:49:19.938Z,4.28
2023-09-05T15:51:48.639Z,1.70
2023-09-05T15:54:18.013Z,3.90
2023-09-05T15:56:45.948Z,1.55
2023-09-05T15:59:14.038Z,3.13
2023-09-05T16:01:41.985Z,2.72
2023-09-05T16:04:09.983Z,3.35
2023-09-05T16:06:39.286Z,1.80
2023-09-05T16:09:07.170Z,3.03
2023-09-05T16:11:37.006Z,3.50
2023-09-05T16:14:06.168Z,2.50
2023-09-05T16:16:34.779Z,3.78
2023-09-05T16:19:03.039Z,2.60
2023-09-05T16:21:31.043Z,2.33
2023-09-05T16:24:00.310Z,2.58
2023-09-05T16:26:30.877Z,3.47
2023-09-05T16:28:59.040Z,1.65
2023-09-05T16:31:26.958Z,2.85
2023-09-05T16:33:54.953Z,2.60
2023-09-05T16:36:23.469Z,4.80
2023-09-05T16:38:52.491Z,3.15
2023-09-05T16:41:21.734Z,5.00
2023-09-05T16:43:49.562Z,3.38
2023-09-05T16:46:18.141Z,2.28
2023-09-05T16:48:46.447Z,3.65
2023-09-05T16:51:15.091Z,5.50
2023-09-05T16:53:43.499Z,2.83
2023-09-05T16:56:13.564Z,2.78
2023-09-05T16:58:43.549Z,3.55
2023-09-05T17:01:11.556Z,2.53
2023-09-05T17:03:39.625Z,2.45
2023-09-05T17:06:07.617Z,3.45
2023-09-05T17:08:35.492Z,4.82
2023-09-05T17:11:04.052Z,3.75
2023-09-05T17:13:32.104Z,2.80
2023-09-05T17:16:00.434Z,3.85
2023-09-05T17:18:28.792Z,3.08
2023-09-05T17:20:58.234Z,3.15
2023-09-05T17:23:26.214Z,4.00
2023-09-05T17:25:54.101Z,2.28
2023-09-05T17:28:23.117Z,5.35
2023-09-05T17:30:51.223Z,3.75
2023-09-05T17:33:20.669Z,1.75
2023-09-05T17:35:53.647Z,3.83
2023-09-05T17:38:22.175Z,1.88
2023-09-05T17:40:50.268Z,3.10
2023-09-05T17:43:18.932Z,6.72
2023-09-05T17:45:47.495Z,2.58
2023-09-05T17:48:23.331Z,4.28
2023-09-05T17:50:57.763Z,2.35
2023-09-05T17:53:27.037Z,3.72
2023-09-05T17:55:54.988Z,3.80
2023-09-05T17:58:22.915Z,3.55
2023-09-05T18:00:52.571Z,3.28
2023-09-05T18:03:20.916Z,3.10
2023-09-05T18:05:50.066Z,2.42
2023-09-05T18:08:19.743Z,3.17
2023-09-05T18:10:48.325Z,4.37
2023-09-05T18:13:16.249Z,6.43
2023-09-05T18:15:45.749Z,4.53
2023-09-05T18:18:15.207Z,2.33
2023-09-05T18:20:43.594Z,4.90
2023-09-05T18:23:11.544Z,4.87
2023-09-05T18:25:40.897Z,4.73
2023-09-05T18:28:08.842Z,3.37
2023-09-05T18:30:36.750Z,3.93
2023-09-05T18:33:04.984Z,2.83
2023-09-05T18:35:32.844Z,2.43
2023-09-05T18:38:01.082Z,3.50
2023-09-05T18:40:29.036Z,3.50
2023-09-05T18:42:58.325Z,5.30
2023-09-05T18:45:26.352Z,4.03
2023-09-05T18:47:54.277Z,3.27
2023-09-05T18:50:22.148Z,4.27
2023-09-05T18:52:51.896Z,2.70
2023-09-05T18:55:19.836Z,4.10
2023-09-05T18:57:47.690Z,3.03
2023-09-05T19:00:17.646Z,4.50
2023-09-05T19:02:46.082Z,5.23
2023-09-05T19:05:16.306Z,4.70
2023-09-05T19:07:43.238Z,4.73
2023-09-05T19:10:11.467Z,3.90
2023-09-05T19:12:39.328Z,4.07
2023-09-05T19:15:08.779Z,3.63
2023-09-05T19:17:38.115Z,3.80
2023-09-05T19:20:07.710Z,4.83
2023-09-05T19:22:36.305Z,4.03
2023-09-05T19:25:04.445Z,3.50
2023-09-05T19:27:32.335Z,7.47
2023-09-05T19:30:00.259Z,7.53
2023-09-05T19:32:28.371Z,4.37
2023-09-05T19:34:57.577Z,6.43
2023-09-05T19:37:25.416Z,3.20
2023-09-05T19:39:53.373Z,5.50
2023-09-05T19:42:21.559Z,4.17
2023-09-05T19:44:49.656Z,4.67
2023-09-05T19:47:17.683Z,6.00
2023-09-05T19:49:45.669Z,4.63
2023-09-05T19:52:15.385Z,4.53
2023-09-05T19:54:43.225Z,4.57
2023-09-05T19:57:11.175Z,6.27
2023-09-05T19:59:39.150Z,3.57
2023-09-05T20:02:07.662Z,4.27
2023-09-05T20:04:35.590Z,5.80
2023-09-05T20:07:03.789Z,5.87
2023-09-05T20:09:35.241Z,3.73
2023-09-05T20:12:04.820Z,5.10
2023-09-05T20:14:33.249Z,3.70
2023-09-05T20:17:01.160Z,4.97
2023-09-05T20:19:29.899Z,4.23
2023-09-05T20:21:59.798Z,5.80
2023-09-05T20:24:27.768Z,6.63
2023-09-05T20:26:56.999Z,4.37
2023-09-05T20:29:25.311Z,3.97
2023-09-05T20:31:53.225Z,5.27
2023-09-05T20:34:21.396Z,6.03
2023-09-05T20:36:53.223Z,4.23
2023-09-05T20:39:23.217Z,5.90
2023-09-05T20:41:51.233Z,4.77
2023-09-05T20:44:20.435Z,4.47
2023-09-05T20:46:48.563Z,6.10
2023-09-05T20:49:16.561Z,5.43
2023-09-05T20:51:44.954Z,6.53
2023-09-05T20:54:13.146Z,5.80
2023-09-05T20:56:41.058Z,4.60
2023-09-05T20:59:09.498Z,6.83
2023-09-05T21:01:39.537Z,4.97
2023-09-05T21:04:09.253Z,4.80
2023-09-05T21:06:37.337Z,5.00
2023-09-05T21:09:05.580Z,5.60
2023-09-05T21:11:33.455Z,5.23
2023-09-05T21:14:01.687Z,6.03
2023-09-05T21:16:29.560Z,4.47
2023-09-05T21:19:01.473Z,4.50
2023-09-05T21:21:30.754Z,5.23
2023-09-05T21:23:58.670Z,4.53
2023-09-05T21:26:26.523Z,5.50
2023-09-05T21:28:54.345Z,5.13
2023-09-05T21:31:22.299Z,6.17
2023-09-05T21:33:50.246Z,4.23
2023-09-05T21:36:19.555Z,5.57
2023-09-05T21:38:47.432Z,4.70
2023-09-05T21:41:15.286Z,6.37
2023-09-05T21:43:43.202Z,4.97
2023-09-05T21:46:13.476Z,5.87
2023-09-05T21:48:41.718Z,6.20
2023-09-05T21:51:09.625Z,5.90
2023-09-05T21:53:39.533Z,6.63
2023-09-05T21:56:07.398Z,6.13
2023-09-05T21:58:35.275Z,5.77
2023-09-05T22:01:03.214Z,5.30
2023-09-05T22:03:31.481Z,6.80
2023-09-05T22:05:59.498Z,7.70
2023-09-05T22:08:27.614Z,6.60
2023-09-05T22:10:58.324Z,5.67
2023-09-05T22:13:26.161Z,6.60
2023-09-05T22:15:55.604Z,6.93
2023-09-05T22:18:23.892Z,7.83
2023-09-05T22:20:58.487Z,6.03
2023-09-05T22:23:27.342Z,4.90
2023-09-05T22:25:56.716Z,4.63
2023-09-05T22:28:27.516Z,6.40
2023-09-05T22:30:56.018Z,6.07
2023-09-05T22:33:24.373Z,6.53
2023-09-05T22:35:52.659Z,5.13
2023-09-05T22:38:21.426Z,4.27
2023-09-05T22:40:49.368Z,5.27
2023-09-05T22:43:18.945Z,6.33
2023-09-05T22:45:47.219Z,6.10
2023-09-05T22:48:15.247Z,5.90
2023-09-05T22:50:44.182Z,3.87
2023-09-05T22:53:12.033Z,6.80
2023-09-05T22:55:40.736Z,6.27
2023-09-05T22:58:08.939Z,5.23
2023-09-05T23:00:39.483Z,5.97
2023-09-05T23:03:08.159Z,5.27
2023-09-05T23:05:36.318Z,7.13
2023-09-05T23:08:05.214Z,6.37
2023-09-05T23:10:33.087Z,5.67
2023-09-05T23:13:00.983Z,6.03
2023-09-05T23:15:28.890Z,5.27
2023-09-05T23:17:58.298Z,6.13
2023-09-05T23:20:26.553Z,6.93
2023-09-05T23:22:54.422Z,4.77
2023-09-05T23:25:23.321Z,4.93
2023-09-05T23:27:52.178Z,5.23
2023-09-05T23:30:20.230Z,4.20
2023-09-05T23:32:48.281Z,5.40
2023-09-05T23:35:19.469Z,6.30
2023-09-05T23:37:47.378Z,4.87
2023-09-05T23:40:17.986Z,6.00
2023-09-05T23:42:46.975Z,4.60
2023-09-05T23:45:16.411Z,6.37
2023-09-05T23:47:48.248Z,4.43
2023-09-05T23:50:19.997Z,5.50
2023-09-05T23:52:50.093Z,6.33
2023-09-05T23:55:19.323Z,6.33
2023-09-05T23:57:47.422Z,7.63
